createdAt,value
2018-06-13T00:00:44.265Z,97.56
2018-06-13T00:01:44.201Z,97.18
2018-06-13T00:02:23.124Z,97.28
2018-06-13T00:03:23.065Z,97.28
2018-06-13T00:04:22.997Z,97.38
2018-06-13T00:05:43.935Z,97.38
2018-06-13T00:06:43.867Z,96.70
2018-06-13T00:07:23.476Z,97.56
2018-06-13T00:08:23.420Z,97.18
2018-06-13T00:09:23.351Z,97.18
2018-06-13T00:10:43.585Z,96.61
2018-06-13T00:11:43.479Z,97.38
2018-06-13T00:12:22.434Z,97.09
2018-06-13T00:13:22.398Z,96.61
2018-06-13T00:14:22.331Z,96.99
2018-06-13T00:15:43.194Z,96.89
2018-06-13T00:16:43.197Z,96.32
2018-06-13T00:17:22.071Z,97.09
2018-06-13T00:18:22.078Z,96.80
2018-06-13T00:19:21.917Z,96.42
2018-06-13T00:20:42.831Z,96.32
2018-06-13T00:21:42.812Z,96.32
2018-06-13T00:22:21.690Z,96.22
2018-06-13T00:23:21.633Z,96.70
2018-06-13T00:24:21.723Z,96.51
2018-06-13T00:25:42.522Z,96.51
2018-06-13T00:26:42.397Z,96.70
2018-06-13T00:27:21.348Z,96.61
2018-06-13T00:28:21.264Z,95.94
2018-06-13T00:29:21.196Z,96.80
2018-06-13T00:30:42.109Z,96.22
2018-06-13T00:31:42.059Z,96.13
2018-06-13T00:32:20.993Z,95.94
2018-06-13T00:33:20.908Z,96.80
2018-06-13T00:34:20.839Z,97.09
2018-06-13T00:35:41.770Z,96.42
2018-06-13T00:36:41.714Z,96.42
2018-06-13T00:37:20.644Z,96.03
2018-06-13T00:38:20.552Z,95.84
2018-06-13T00:39:20.489Z,96.13
2018-06-13T00:40:41.420Z,96.51
2018-06-13T00:41:41.308Z,95.94
2018-06-13T00:42:20.285Z,96.22
2018-06-13T00:43:20.200Z,96.80
2018-06-13T00:44:20.121Z,96.13
2018-06-13T00:45:41.044Z,96.99
2018-06-13T00:46:40.972Z,96.22
2018-06-13T00:47:19.902Z,96.42
2018-06-13T00:48:19.829Z,96.51
2018-06-13T00:49:19.759Z,96.13
2018-06-13T00:50:40.680Z,96.13
2018-06-13T00:51:40.603Z,96.70
2018-06-13T00:52:19.563Z,96.61
2018-06-13T00:53:19.482Z,96.03
2018-06-13T00:54:19.445Z,96.51
2018-06-13T00:55:40.326Z,96.70
2018-06-13T00:56:40.249Z,96.13
2018-06-13T00:57:19.221Z,97.09
2018-06-13T00:58:19.111Z,96.32
2018-06-13T00:59:19.063Z,96.70
2018-06-13T01:00:39.951Z,96.03
2018-06-13T01:01:39.902Z,95.94
2018-06-13T01:02:18.826Z,96.03
2018-06-13T01:03:18.740Z,96.03
2018-06-13T01:04:18.696Z,96.51
2018-06-13T01:05:39.597Z,96.70
2018-06-13T01:06:39.551Z,97.18
2018-06-13T01:07:18.478Z,97.56
2018-06-13T01:08:18.383Z,97.47
2018-06-13T01:09:18.331Z,96.89
2018-06-13T01:10:39.284Z,97.38
2018-06-13T01:11:39.216Z,97.28
2018-06-13T01:12:18.102Z,96.99
2018-06-13T01:13:18.048Z,96.99
2018-06-13T01:14:17.973Z,97.47
2018-06-13T01:15:38.874Z,96.80
2018-06-13T01:16:38.796Z,96.89
2018-06-13T01:17:17.744Z,96.70
2018-06-13T01:18:17.676Z,96.61
2018-06-13T01:19:17.592Z,96.61
2018-06-13T01:20:38.506Z,96.61
2018-06-13T01:21:38.432Z,96.99
2018-06-13T01:22:17.376Z,96.80
2018-06-13T01:23:17.343Z,96.42
2018-06-13T01:24:17.246Z,96.80
2018-06-13T01:25:39.904Z,97.04
2018-06-13T01:26:38.950Z,96.99
2018-06-13T01:27:17.032Z,96.75
2018-06-13T01:28:16.956Z,96.94
2018-06-13T01:29:16.884Z,96.84
2018-06-13T01:30:37.803Z,96.66
2018-06-13T01:31:37.729Z,98.38
2018-06-13T01:32:16.664Z,97.13
2018-06-13T01:33:16.583Z,97.42
2018-06-13T01:34:16.553Z,97.52
2018-06-13T01:35:37.441Z,96.56
2018-06-13T01:36:37.364Z,96.94
2018-06-13T01:37:16.317Z,96.84
2018-06-13T01:38:16.252Z,97.52
2018-06-13T01:39:16.174Z,96.75
2018-06-13T01:40:38.966Z,96.27
2018-06-13T01:41:37.893Z,96.08
2018-06-13T01:42:15.944Z,95.89
2018-06-13T01:43:15.860Z,96.27
2018-06-13T01:44:15.797Z,96.08
2018-06-13T01:45:36.721Z,97.04
2018-06-13T01:46:36.645Z,96.27
2018-06-13T01:47:15.621Z,96.18
2018-06-13T01:48:15.510Z,95.98
2018-06-13T01:49:15.433Z,96.08
2018-06-13T01:50:36.344Z,96.18
2018-06-13T01:51:36.301Z,95.94
2018-06-13T01:52:15.217Z,96.08
2018-06-13T01:53:15.167Z,96.80
2018-06-13T01:54:15.064Z,96.42
2018-06-13T01:55:36.904Z,96.51
2018-06-13T01:56:35.923Z,96.22
2018-06-13T01:57:14.869Z,96.89
2018-06-13T01:58:14.810Z,96.99
2018-06-13T01:59:14.723Z,96.80
2018-06-13T02:00:35.637Z,96.03
2018-06-13T02:01:35.569Z,96.89
2018-06-13T02:02:14.507Z,96.89
2018-06-13T02:03:14.444Z,97.28
2018-06-13T02:04:14.368Z,96.70
2018-06-13T02:05:35.270Z,96.80
2018-06-13T02:06:35.193Z,96.03
2018-06-13T02:07:14.140Z,96.03
2018-06-13T02:08:14.064Z,96.70
2018-06-13T02:09:14.005Z,96.51
2018-06-13T02:10:34.897Z,96.80
2018-06-13T02:11:34.829Z,96.80
2018-06-13T02:12:13.782Z,96.51
2018-06-13T02:13:13.717Z,97.08
2018-06-13T02:14:13.642Z,96.66
2018-06-13T02:15:34.536Z,97.28
2018-06-13T02:16:34.480Z,96.89
2018-06-13T02:17:13.427Z,96.99
2018-06-13T02:18:13.344Z,96.80
2018-06-13T02:19:13.278Z,97.56
2018-06-13T02:20:34.184Z,97.33
2018-06-13T02:21:35.940Z,97.08
2018-06-13T02:22:13.050Z,97.47
2018-06-13T02:23:12.975Z,96.80
2018-06-13T02:24:12.918Z,96.84
2018-06-13T02:25:33.871Z,97.37
2018-06-13T02:26:33.757Z,97.33
2018-06-13T02:27:12.690Z,96.61
2018-06-13T02:28:12.638Z,96.89
2018-06-13T02:29:12.545Z,96.80
2018-06-13T02:30:33.460Z,96.89
2018-06-13T02:31:33.387Z,96.84
2018-06-13T02:32:12.341Z,96.22
2018-06-13T02:33:12.258Z,97.28
2018-06-13T02:34:12.173Z,96.84
2018-06-13T02:35:34.936Z,96.66
2018-06-13T02:36:33.924Z,96.94
2018-06-13T02:37:12.889Z,97.04
2018-06-13T02:38:11.889Z,96.56
2018-06-13T02:39:11.813Z,96.84
2018-06-13T02:40:32.754Z,97.13
2018-06-13T02:41:32.679Z,97.04
2018-06-13T02:42:11.605Z,97.42
2018-06-13T02:43:11.536Z,97.33
2018-06-13T02:44:11.470Z,97.33
2018-06-13T02:45:32.360Z,97.13
2018-06-13T02:46:32.296Z,97.04
2018-06-13T02:47:11.240Z,97.13
2018-06-13T02:48:11.179Z,97.13
2018-06-13T02:49:12.949Z,97.13
2018-06-13T02:50:32.938Z,97.71
2018-06-13T02:51:31.936Z,98.38
2018-06-13T02:52:10.869Z,97.23
2018-06-13T02:53:10.819Z,97.90
2018-06-13T02:54:10.728Z,97.71
2018-06-13T02:55:31.655Z,97.33
2018-06-13T02:56:31.570Z,97.33
2018-06-13T02:57:10.523Z,97.90
2018-06-13T02:58:10.441Z,97.04
2018-06-13T02:59:10.373Z,97.52
2018-06-13T03:00:31.295Z,97.42
2018-06-13T03:01:31.224Z,97.37
2018-06-13T03:02:10.148Z,97.33
2018-06-13T03:03:10.066Z,98.13
2018-06-13T03:04:10.014Z,97.56
2018-06-13T03:05:30.913Z,97.47
2018-06-13T03:06:30.948Z,98.13
2018-06-13T03:07:09.792Z,98.18
2018-06-13T03:08:09.718Z,98.23
2018-06-13T03:09:09.644Z,98.28
2018-06-13T03:10:30.563Z,98.23
2018-06-13T03:11:30.488Z,98.33
2018-06-13T03:12:09.592Z,98.13
2018-06-13T03:13:09.360Z,98.23
2018-06-13T03:14:09.280Z,98.23
2018-06-13T03:15:30.182Z,98.23
2018-06-13T03:16:30.127Z,97.66
2018-06-13T03:17:09.046Z,97.66
2018-06-13T03:18:09.000Z,98.47
2018-06-13T03:19:08.910Z,98.13
2018-06-13T03:20:29.821Z,97.71
2018-06-13T03:21:29.749Z,98.18
2018-06-13T03:22:08.691Z,98.38
2018-06-13T03:23:08.631Z,98.47
2018-06-13T03:24:08.550Z,98.18
2018-06-13T03:25:29.462Z,98.38
2018-06-13T03:26:29.440Z,97.61
2018-06-13T03:27:08.342Z,98.18
2018-06-13T03:28:08.270Z,98.09
2018-06-13T03:29:08.189Z,97.80
2018-06-13T03:30:29.088Z,97.71
2018-06-13T03:31:29.021Z,98.18
2018-06-13T03:32:07.976Z,98.09
2018-06-13T03:33:07.886Z,98.57
2018-06-13T03:34:07.824Z,98.18
2018-06-13T03:35:28.740Z,97.80
2018-06-13T03:36:28.645Z,98.28
2018-06-13T03:37:07.588Z,97.52
2018-06-13T03:38:07.525Z,97.71
2018-06-13T03:39:07.452Z,98.28
2018-06-13T03:40:28.362Z,98.28
2018-06-13T03:41:28.285Z,97.71
2018-06-13T03:42:07.273Z,98.28
2018-06-13T03:43:07.171Z,97.52
2018-06-13T03:44:07.183Z,97.33
2018-06-13T03:45:28.004Z,97.80
2018-06-13T03:46:27.943Z,97.71
2018-06-13T03:47:06.876Z,97.52
2018-06-13T03:48:06.798Z,97.90
2018-06-13T03:49:06.726Z,97.71
2018-06-13T03:50:27.641Z,97.71
2018-06-13T03:51:27.564Z,97.52
2018-06-13T03:52:06.535Z,97.61
2018-06-13T03:53:06.438Z,98.18
2018-06-13T03:54:06.394Z,98.38
2018-06-13T03:55:27.274Z,98.18
2018-06-13T03:56:27.200Z,97.99
2018-06-13T03:57:06.150Z,98.28
2018-06-13T03:58:06.108Z,98.09
2018-06-13T03:59:06.024Z,98.38
2018-06-13T04:00:26.930Z,98.09
2018-06-13T04:01:26.860Z,98.28
2018-06-13T04:02:05.877Z,98.28
2018-06-13T04:03:05.738Z,98.47
2018-06-13T04:04:05.647Z,98.28
2018-06-13T04:05:26.589Z,98.66
2018-06-13T04:06:26.471Z,98.57
2018-06-13T04:07:05.441Z,98.18
2018-06-13T04:08:05.350Z,98.47
2018-06-13T04:09:05.284Z,99.14
2018-06-13T04:10:27.056Z,98.57
2018-06-13T04:11:26.115Z,98.75
2018-06-13T04:12:05.066Z,99.04
2018-06-13T04:13:04.989Z,98.95
2018-06-13T04:14:04.918Z,98.66
2018-06-13T04:15:25.815Z,98.75
2018-06-13T04:16:25.742Z,98.66
2018-06-13T04:17:04.697Z,98.85
2018-06-13T04:18:04.618Z,98.95
2018-06-13T04:19:04.562Z,98.85
2018-06-13T04:20:25.455Z,99.04
2018-06-13T04:21:25.381Z,98.38
2018-06-13T04:22:04.339Z,99.52
2018-06-13T04:23:04.243Z,99.52
2018-06-13T04:24:04.178Z,99.62
2018-06-13T04:25:25.085Z,98.47
2018-06-13T04:26:25.023Z,98.85
2018-06-13T04:27:03.961Z,98.85
2018-06-13T04:28:03.886Z,98.85
2018-06-13T04:29:03.813Z,99.43
2018-06-13T04:30:24.724Z,99.67
2018-06-13T04:31:24.663Z,99.24
2018-06-13T04:32:03.606Z,99.24
2018-06-13T04:33:03.523Z,98.95
2018-06-13T04:34:03.440Z,99.14
2018-06-13T04:35:24.412Z,99.24
2018-06-13T04:36:24.304Z,98.75
2018-06-13T04:37:03.227Z,99.24
2018-06-13T04:38:03.146Z,99.14
2018-06-13T04:39:05.954Z,99.10
2018-06-13T04:40:24.017Z,99.48
2018-06-13T04:41:23.924Z,99.71
2018-06-13T04:42:02.939Z,99.33
2018-06-13T04:43:02.806Z,99.67
2018-06-13T04:44:02.718Z,98.71
2018-06-13T04:45:23.643Z,99.00
2018-06-13T04:46:23.573Z,98.81
2018-06-13T04:47:02.528Z,99.10
2018-06-13T04:48:02.432Z,99.67
2018-06-13T04:49:02.357Z,98.95
2018-06-13T04:50:23.296Z,99.19
2018-06-13T04:51:23.215Z,98.81
2018-06-13T04:52:04.939Z,98.61
2018-06-13T04:53:03.924Z,98.61
2018-06-13T04:54:02.941Z,99.10
2018-06-13T04:55:22.922Z,99.19
2018-06-13T04:56:22.843Z,98.61
2018-06-13T04:57:01.798Z,98.43
2018-06-13T04:58:01.711Z,98.33
2018-06-13T04:59:01.643Z,98.90
2018-06-13T05:00:22.554Z,98.33
2018-06-13T05:01:22.484Z,99.10
2018-06-13T05:02:01.425Z,98.61
2018-06-13T05:03:01.339Z,98.71
2018-06-13T05:04:01.286Z,98.52
2018-06-13T05:05:22.197Z,98.24
2018-06-13T05:06:22.118Z,98.61
2018-06-13T05:07:02.940Z,98.52
2018-06-13T05:08:01.927Z,98.52
2018-06-13T05:09:00.916Z,98.43
2018-06-13T05:10:21.818Z,98.43
2018-06-13T05:11:21.760Z,98.52
2018-06-13T05:12:00.680Z,97.56
2018-06-13T05:13:00.628Z,98.43
2018-06-13T05:14:00.579Z,98.24
2018-06-13T05:15:21.484Z,98.33
2018-06-13T05:16:21.398Z,98.04
2018-06-13T05:17:00.339Z,98.33
2018-06-13T05:18:00.262Z,97.80
2018-06-13T05:19:00.192Z,98.66
2018-06-13T05:20:22.088Z,98.57
2018-06-13T05:21:21.030Z,98.47
2018-06-13T05:21:59.969Z,97.90
2018-06-13T05:22:59.892Z,97.80
2018-06-13T05:23:59.827Z,97.80
2018-06-13T05:25:20.739Z,97.13
2018-06-13T05:26:20.682Z,97.71
2018-06-13T05:26:59.596Z,97.52
2018-06-13T05:27:59.545Z,97.42
2018-06-13T05:28:59.467Z,97.04
2018-06-13T05:30:20.376Z,97.23
2018-06-13T05:31:20.318Z,97.42
2018-06-13T05:31:59.261Z,97.52
2018-06-13T05:32:59.175Z,97.42
2018-06-13T05:34:01.934Z,96.84
2018-06-13T05:35:20.098Z,96.75
2018-06-13T05:36:19.946Z,97.04
2018-06-13T05:36:58.899Z,96.84
2018-06-13T05:37:58.814Z,96.18
2018-06-13T05:38:58.744Z,96.84
2018-06-13T05:40:19.715Z,96.75
2018-06-13T05:41:19.574Z,96.80
2018-06-13T05:41:58.580Z,96.66
2018-06-13T05:42:58.507Z,96.94
2018-06-13T05:43:58.385Z,96.51
2018-06-13T05:45:19.292Z,96.61
2018-06-13T05:46:19.233Z,96.32
2018-06-13T05:46:58.171Z,96.51
2018-06-13T05:48:01.941Z,96.03
2018-06-13T05:49:00.940Z,95.56
2018-06-13T05:50:18.942Z,95.84
2018-06-13T05:51:18.945Z,95.07
2018-06-13T05:51:57.797Z,94.60
2018-06-13T05:52:57.750Z,94.40
2018-06-13T05:53:57.662Z,94.60
2018-06-13T05:55:18.575Z,94.40
2018-06-13T05:56:18.520Z,94.84
2018-06-13T05:56:57.472Z,94.93
2018-06-13T05:57:57.384Z,95.51
2018-06-13T05:58:57.311Z,95.56
2018-06-13T06:00:18.229Z,94.89
2018-06-13T06:01:18.214Z,95.36
2018-06-13T06:01:57.101Z,95.07
2018-06-13T06:02:57.048Z,94.89
2018-06-13T06:03:56.951Z,94.40
2018-06-13T06:05:17.862Z,94.50
2018-06-13T06:06:17.802Z,94.40
2018-06-13T06:06:56.737Z,94.40
2018-06-13T06:07:56.666Z,94.40
2018-06-13T06:08:56.595Z,94.21
2018-06-13T06:10:17.533Z,94.79
2018-06-13T06:11:17.433Z,94.40
2018-06-13T06:11:56.389Z,94.31
2018-06-13T06:12:56.312Z,94.17
2018-06-13T06:13:56.240Z,94.31
2018-06-13T06:15:17.165Z,94.40
2018-06-13T06:16:17.104Z,94.40
2018-06-13T06:16:56.012Z,94.40
2018-06-13T06:17:55.949Z,94.40
2018-06-13T06:18:55.874Z,94.40
2018-06-13T06:20:16.770Z,94.60
2018-06-13T06:21:16.709Z,94.69
2018-06-13T06:21:55.662Z,94.60
2018-06-13T06:22:55.596Z,94.40
2018-06-13T06:23:55.541Z,94.79
2018-06-13T06:25:16.429Z,94.31
2018-06-13T06:26:16.373Z,94.31
2018-06-13T06:26:55.311Z,94.12
2018-06-13T06:27:55.246Z,93.93
2018-06-13T06:28:55.168Z,94.02
2018-06-13T06:30:16.054Z,94.60
2018-06-13T06:31:16.000Z,93.93
2018-06-13T06:31:54.942Z,93.93
2018-06-13T06:32:54.879Z,94.02
2018-06-13T06:33:54.788Z,94.21
2018-06-13T06:35:15.724Z,93.83
2018-06-13T06:36:15.654Z,94.21
2018-06-13T06:36:54.592Z,94.50
2018-06-13T06:37:54.562Z,93.21
2018-06-13T06:38:54.453Z,93.74
2018-06-13T06:40:15.350Z,92.92
2018-06-13T06:41:15.286Z,93.30
2018-06-13T06:41:54.231Z,92.73
2018-06-13T06:42:54.162Z,92.54
2018-06-13T06:43:54.108Z,92.82
2018-06-13T06:45:14.995Z,91.82
2018-06-13T06:46:14.924Z,91.29
2018-06-13T06:46:53.871Z,91.82
2018-06-13T06:47:53.802Z,92.20
2018-06-13T06:48:53.742Z,92.20
2018-06-13T06:50:14.635Z,91.05
2018-06-13T06:51:14.581Z,91.91
2018-06-13T06:51:53.522Z,90.23
2018-06-13T06:52:53.444Z,91.00
2018-06-13T06:53:53.379Z,91.58
2018-06-13T06:55:14.304Z,90.19
2018-06-13T06:56:14.213Z,90.47
2018-06-13T06:56:53.167Z,90.38
2018-06-13T06:57:53.074Z,89.57
2018-06-13T06:58:53.008Z,90.14
2018-06-13T07:00:13.976Z,90.91
2018-06-13T07:01:13.858Z,91.10
2018-06-13T07:01:52.789Z,91.00
2018-06-13T07:02:52.788Z,90.14
2018-06-13T07:03:52.683Z,90.81
2018-06-13T07:05:13.599Z,91.10
2018-06-13T07:06:13.613Z,91.19
2018-06-13T07:06:52.449Z,91.10
2018-06-13T07:07:52.389Z,91.67
2018-06-13T07:08:52.316Z,91.10
2018-06-13T07:10:13.225Z,90.23
2018-06-13T07:11:13.165Z,88.80
2018-06-13T07:11:52.094Z,88.13
2018-06-13T07:12:52.017Z,87.84
2018-06-13T07:13:51.984Z,88.61
2018-06-13T07:15:12.941Z,88.03
2018-06-13T07:16:12.825Z,87.84
2018-06-13T07:16:51.742Z,89.76
2018-06-13T07:17:51.669Z,88.61
2018-06-13T07:18:51.603Z,89.09
2018-06-13T07:20:12.503Z,89.32
2018-06-13T07:21:12.450Z,88.37
2018-06-13T07:21:51.390Z,87.98
2018-06-13T07:22:51.313Z,87.94
2018-06-13T07:23:51.247Z,88.13
2018-06-13T07:25:13.099Z,87.94
2018-06-13T07:26:13.020Z,88.32
2018-06-13T07:26:51.019Z,88.65
2018-06-13T07:27:50.951Z,88.23
2018-06-13T07:28:50.905Z,88.13
2018-06-13T07:30:11.810Z,88.61
2018-06-13T07:31:11.767Z,88.42
2018-06-13T07:31:50.684Z,88.13
2018-06-13T07:32:50.612Z,88.51
2018-06-13T07:33:50.527Z,87.46
2018-06-13T07:35:11.444Z,88.13
2018-06-13T07:36:11.381Z,87.37
2018-06-13T07:36:50.321Z,87.84
2018-06-13T07:37:50.320Z,87.94
2018-06-13T07:38:50.182Z,87.12
2018-06-13T07:40:12.971Z,86.35
2018-06-13T07:41:10.999Z,85.88
2018-06-13T07:41:49.969Z,84.82
2018-06-13T07:42:49.893Z,84.53
2018-06-13T07:43:49.824Z,84.72
2018-06-13T07:45:10.729Z,84.25
2018-06-13T07:46:10.668Z,84.63
2018-06-13T07:46:49.621Z,85.01
2018-06-13T07:47:49.564Z,84.82
2018-06-13T07:48:49.483Z,84.86
2018-06-13T07:50:10.382Z,86.68
2018-06-13T07:51:10.374Z,85.82
2018-06-13T07:51:49.279Z,85.72
2018-06-13T07:52:49.177Z,83.23
2018-06-13T07:53:49.117Z,82.75
2018-06-13T07:55:10.984Z,82.94
2018-06-13T07:56:09.949Z,82.56
2018-06-13T07:56:48.900Z,82.85
2018-06-13T07:57:48.823Z,82.32
2018-06-13T07:58:48.753Z,82.52
2018-06-13T08:00:09.667Z,83.76
2018-06-13T08:01:09.592Z,83.86
2018-06-13T08:01:48.596Z,83.71
2018-06-13T08:02:48.492Z,83.19
2018-06-13T08:03:48.405Z,83.58
2018-06-13T08:05:09.395Z,84.28
2018-06-13T08:06:09.250Z,84.09
2018-06-13T08:06:48.186Z,83.67
2018-06-13T08:07:48.110Z,83.09
2018-06-13T08:08:48.120Z,85.21
2018-06-13T08:10:08.959Z,83.29
2018-06-13T08:11:08.907Z,83.58
2018-06-13T08:11:47.842Z,84.88
2018-06-13T08:12:47.763Z,84.58
2018-06-13T08:13:47.710Z,85.88
2018-06-13T08:15:08.608Z,84.01
2018-06-13T08:16:08.543Z,83.44
2018-06-13T08:16:47.528Z,83.53
2018-06-13T08:17:47.407Z,85.35
2018-06-13T08:18:47.350Z,85.64
2018-06-13T08:20:08.272Z,85.25
2018-06-13T08:21:08.193Z,84.68
2018-06-13T08:21:47.130Z,85.88
2018-06-13T08:22:47.051Z,84.58
2018-06-13T08:23:46.991Z,85.16
2018-06-13T08:25:07.910Z,84.82
2018-06-13T08:26:07.832Z,85.45
2018-06-13T08:26:46.773Z,85.35
2018-06-13T08:27:46.709Z,84.11
2018-06-13T08:28:46.630Z,84.01
2018-06-13T08:30:07.540Z,84.58
2018-06-13T08:31:07.476Z,85.93
2018-06-13T08:31:46.429Z,84.68
2018-06-13T08:32:46.437Z,84.39
2018-06-13T08:33:46.299Z,84.97
2018-06-13T08:35:07.198Z,84.88
2018-06-13T08:36:07.117Z,84.34
2018-06-13T08:36:46.076Z,83.09
2018-06-13T08:37:45.995Z,82.42
2018-06-13T08:38:45.932Z,82.71
2018-06-13T08:40:06.934Z,82.81
2018-06-13T08:41:06.748Z,82.90
2018-06-13T08:41:45.713Z,82.42
2018-06-13T08:42:45.633Z,82.32
2018-06-13T08:43:45.575Z,82.62
2018-06-13T08:45:06.466Z,82.81
2018-06-13T08:46:06.399Z,82.71
2018-06-13T08:46:45.358Z,83.58
2018-06-13T08:47:45.283Z,83.00
2018-06-13T08:48:45.204Z,82.46
2018-06-13T08:50:06.110Z,81.37
2018-06-13T08:51:06.080Z,82.08
2018-06-13T08:51:45.025Z,81.79
2018-06-13T08:52:44.926Z,81.41
2018-06-13T08:53:44.848Z,82.94
2018-06-13T08:55:05.769Z,81.98
2018-06-13T08:56:05.697Z,82.37
2018-06-13T08:56:44.673Z,82.85
2018-06-13T08:57:44.578Z,81.60
2018-06-13T08:58:44.498Z,81.41
2018-06-13T09:00:05.406Z,81.51
2018-06-13T09:01:05.347Z,81.98
2018-06-13T09:01:44.285Z,83.61
2018-06-13T09:02:44.241Z,82.94
2018-06-13T09:03:44.153Z,84.48
2018-06-13T09:05:05.059Z,81.41
2018-06-13T09:06:04.991Z,81.70
2018-06-13T09:06:43.934Z,82.27
2018-06-13T09:07:43.869Z,82.46
2018-06-13T09:08:43.805Z,82.65
2018-06-13T09:10:04.711Z,82.18
2018-06-13T09:11:04.631Z,81.79
2018-06-13T09:11:43.587Z,81.79
2018-06-13T09:12:43.503Z,81.79
2018-06-13T09:13:43.439Z,82.27
2018-06-13T09:15:04.389Z,82.46
2018-06-13T09:16:04.283Z,82.42
2018-06-13T09:16:43.270Z,84.05
2018-06-13T09:17:43.157Z,83.58
2018-06-13T09:18:43.079Z,82.32
2018-06-13T09:20:03.993Z,83.09
2018-06-13T09:21:03.940Z,82.52
2018-06-13T09:21:42.885Z,82.32
2018-06-13T09:22:42.806Z,81.37
2018-06-13T09:23:42.731Z,82.14
2018-06-13T09:25:03.650Z,81.08
2018-06-13T09:26:03.584Z,81.56
2018-06-13T09:26:42.513Z,81.37
2018-06-13T09:27:42.452Z,81.37
2018-06-13T09:28:42.390Z,81.37
2018-06-13T09:30:03.322Z,81.85
2018-06-13T09:31:03.217Z,81.46
2018-06-13T09:31:42.152Z,80.99
2018-06-13T09:32:42.093Z,80.41
2018-06-13T09:33:42.014Z,80.51
2018-06-13T09:35:05.008Z,79.68
2018-06-13T09:36:02.864Z,79.59
2018-06-13T09:36:41.803Z,79.01
2018-06-13T09:37:41.783Z,80.16
2018-06-13T09:38:41.666Z,81.22
2018-06-13T09:40:02.571Z,81.22
2018-06-13T09:41:02.524Z,79.49
2018-06-13T09:41:41.477Z,79.88
2018-06-13T09:42:41.376Z,79.01
2018-06-13T09:43:41.310Z,79.49
2018-06-13T09:45:02.228Z,78.44
2018-06-13T09:46:03.562Z,79.78
2018-06-13T09:46:48.862Z,78.82
2018-06-13T09:47:41.584Z,78.05
2018-06-13T09:48:40.945Z,78.82
2018-06-13T09:50:01.902Z,78.44
2018-06-13T09:51:01.795Z,78.53
2018-06-13T09:51:40.749Z,79.21
2018-06-13T09:52:40.676Z,79.30
2018-06-13T09:53:40.615Z,79.97
2018-06-13T09:55:01.508Z,78.53
2018-06-13T09:56:01.440Z,77.95
2018-06-13T09:56:40.384Z,78.00
2018-06-13T09:57:40.350Z,79.49
2018-06-13T09:58:40.256Z,79.78
2018-06-13T10:00:01.164Z,79.21
2018-06-13T10:01:01.654Z,82.27
2018-06-13T10:01:40.618Z,82.08
2018-06-13T10:02:39.961Z,82.37
2018-06-13T10:03:39.895Z,79.78
2018-06-13T10:05:00.807Z,81.22
2018-06-13T10:06:00.747Z,80.26
2018-06-13T10:06:39.681Z,80.26
2018-06-13T10:07:39.615Z,79.30
2018-06-13T10:08:39.616Z,79.30
2018-06-13T10:10:00.451Z,79.78
2018-06-13T10:11:00.390Z,79.39
2018-06-13T10:11:39.326Z,79.49
2018-06-13T10:12:39.276Z,79.68
2018-06-13T10:13:39.195Z,78.72
2018-06-13T10:15:00.663Z,78.15
2018-06-13T10:16:00.610Z,78.82
2018-06-13T10:16:39.514Z,79.49
2018-06-13T10:17:38.933Z,79.21
2018-06-13T10:18:38.842Z,80.74
2018-06-13T10:19:59.748Z,81.45
2018-06-13T10:20:59.676Z,81.26
2018-06-13T10:21:38.721Z,79.24
2018-06-13T10:22:38.556Z,78.86
2018-06-13T10:23:38.551Z,78.77
2018-06-13T10:24:59.399Z,77.80
2018-06-13T10:25:59.341Z,77.23
2018-06-13T10:26:38.277Z,76.84
2018-06-13T10:27:38.221Z,77.23
2018-06-13T10:28:38.686Z,76.65
2018-06-13T10:29:59.612Z,76.94
2018-06-13T10:30:59.519Z,76.94
2018-06-13T10:31:37.927Z,77.23
2018-06-13T10:32:37.858Z,77.23
2018-06-13T10:33:37.779Z,78.70
2018-06-13T10:34:58.682Z,78.52
2018-06-13T10:35:58.630Z,77.26
2018-06-13T10:36:37.566Z,76.12
2018-06-13T10:37:37.508Z,75.73
2018-06-13T10:38:37.422Z,76.79
2018-06-13T10:39:58.340Z,77.08
2018-06-13T10:40:58.290Z,77.75
2018-06-13T10:41:37.224Z,75.82
2018-06-13T10:42:37.158Z,75.15
2018-06-13T10:43:37.652Z,77.08
2018-06-13T10:44:58.578Z,75.92
2018-06-13T10:45:57.936Z,75.73
2018-06-13T10:46:36.894Z,75.25
2018-06-13T10:47:36.809Z,74.64
2018-06-13T10:48:36.743Z,75.98
2018-06-13T10:49:57.718Z,75.31
2018-06-13T10:50:57.592Z,76.27
2018-06-13T10:51:36.532Z,75.79
2018-06-13T10:52:36.540Z,77.33
2018-06-13T10:53:36.398Z,76.46
2018-06-13T10:54:57.318Z,76.56
2018-06-13T10:55:57.247Z,77.42
2018-06-13T10:56:36.188Z,76.40
2018-06-13T10:57:36.672Z,75.35
2018-06-13T10:58:36.634Z,75.79
2018-06-13T10:59:56.953Z,76.88
2018-06-13T11:00:56.906Z,76.88
2018-06-13T11:01:35.873Z,75.92
2018-06-13T11:02:35.760Z,75.15
2018-06-13T11:03:35.721Z,76.21
2018-06-13T11:04:56.592Z,75.63
2018-06-13T11:05:56.528Z,75.63
2018-06-13T11:06:35.490Z,75.73
2018-06-13T11:07:35.412Z,75.63
2018-06-13T11:08:35.386Z,74.39
2018-06-13T11:09:56.241Z,74.90
2018-06-13T11:10:56.190Z,74.04
2018-06-13T11:11:36.658Z,75.06
2018-06-13T11:12:36.531Z,73.33
2018-06-13T11:13:34.990Z,75.20
2018-06-13T11:14:55.923Z,75.54
2018-06-13T11:15:55.866Z,73.81
2018-06-13T11:16:34.778Z,72.66
2018-06-13T11:17:34.719Z,72.56
2018-06-13T11:18:34.647Z,73.04
2018-06-13T11:19:55.562Z,74.19
2018-06-13T11:20:55.502Z,72.95
2018-06-13T11:21:34.428Z,71.98
2018-06-13T11:22:34.378Z,73.04
2018-06-13T11:23:34.296Z,73.33
2018-06-13T11:24:55.213Z,74.96
2018-06-13T11:25:55.195Z,74.96
2018-06-13T11:26:34.138Z,74.48
2018-06-13T11:27:34.030Z,73.04
2018-06-13T11:28:33.948Z,74.29
2018-06-13T11:29:54.869Z,74.58
2018-06-13T11:30:54.799Z,74.58
2018-06-13T11:31:33.779Z,75.25
2018-06-13T11:32:33.674Z,75.54
2018-06-13T11:33:33.623Z,74.96
2018-06-13T11:34:54.504Z,75.15
2018-06-13T11:35:54.451Z,74.87
2018-06-13T11:36:33.379Z,75.15
2018-06-13T11:37:33.313Z,76.12
2018-06-13T11:38:33.252Z,74.19
2018-06-13T11:39:54.162Z,74.19
2018-06-13T11:40:54.107Z,74.96
2018-06-13T11:41:33.040Z,75.00
2018-06-13T11:42:32.969Z,74.33
2018-06-13T11:43:32.979Z,72.41
2018-06-13T11:44:53.836Z,71.35
2018-06-13T11:45:53.745Z,70.87
2018-06-13T11:46:32.755Z,70.52
2018-06-13T11:47:32.632Z,70.62
2018-06-13T11:48:32.568Z,71.10
2018-06-13T11:49:53.458Z,70.01
2018-06-13T11:50:53.407Z,70.33
2018-06-13T11:51:32.353Z,71.58
2018-06-13T11:52:32.322Z,70.72
2018-06-13T11:53:32.255Z,72.54
2018-06-13T11:54:53.204Z,72.06
2018-06-13T11:55:53.117Z,70.90
2018-06-13T11:56:31.996Z,71.29
2018-06-13T11:57:31.920Z,70.90
2018-06-13T11:58:31.863Z,70.33
2018-06-13T11:59:52.772Z,70.81
2018-06-13T12:00:52.713Z,72.16
2018-06-13T12:01:31.681Z,72.83
2018-06-13T12:02:31.598Z,73.88
2018-06-13T12:03:31.551Z,71.39
2018-06-13T12:04:52.433Z,70.10
2018-06-13T12:05:52.363Z,70.87
2018-06-13T12:06:31.309Z,72.22
2018-06-13T12:07:31.235Z,71.98
2018-06-13T12:08:31.164Z,72.37
2018-06-13T12:09:52.085Z,73.81
2018-06-13T12:10:52.049Z,75.06
2018-06-13T12:11:31.016Z,74.96
2018-06-13T12:12:30.905Z,73.14
2018-06-13T12:13:30.854Z,72.28
2018-06-13T12:14:51.736Z,72.18
2018-06-13T12:15:51.673Z,74.77
2018-06-13T12:16:30.623Z,73.91
2018-06-13T12:17:30.548Z,74.77
2018-06-13T12:18:30.474Z,76.31
2018-06-13T12:19:51.389Z,76.98
2018-06-13T12:20:51.325Z,79.14
2018-06-13T12:21:30.281Z,79.24
2018-06-13T12:22:30.247Z,79.82
2018-06-13T12:23:30.132Z,80.30
2018-06-13T12:24:51.040Z,79.68
2018-06-13T12:25:50.982Z,80.83
2018-06-13T12:26:29.920Z,80.93
2018-06-13T12:27:29.876Z,81.41
2018-06-13T12:28:29.821Z,81.12
2018-06-13T12:29:50.710Z,81.12
2018-06-13T12:30:50.636Z,81.22
2018-06-13T12:31:29.571Z,81.02
2018-06-13T12:32:29.524Z,81.70
2018-06-13T12:33:29.433Z,81.31
2018-06-13T12:34:50.351Z,81.22
2018-06-13T12:35:50.309Z,81.22
2018-06-13T12:36:29.221Z,80.35
2018-06-13T12:37:29.695Z,80.64
2018-06-13T12:38:29.632Z,80.26
2018-06-13T12:39:49.997Z,80.20
2018-06-13T12:40:49.917Z,79.82
2018-06-13T12:41:28.859Z,79.59
2018-06-13T12:42:28.798Z,81.07
2018-06-13T12:43:28.728Z,79.24
2018-06-13T12:44:49.677Z,78.57
2018-06-13T12:45:49.653Z,78.38
2018-06-13T12:46:28.501Z,78.00
2018-06-13T12:47:28.457Z,78.38
2018-06-13T12:48:28.384Z,78.28
2018-06-13T12:49:49.285Z,78.47
2018-06-13T12:50:49.272Z,78.57
2018-06-13T12:51:28.225Z,79.34